Archival Weather

Chicago O'Hare International

Chicago, Illinois (KORD)

Report from: Tuesday, August 16, 2022 5:51 AM CDT
Current time: Sunday, February 25, 2024 2:50 PM CST

Current weather – Weather history – Daily summaries
Weather forecast

Temperature16.7°C (62.1°F)
Dew point15.0°C (59.0°F)
Winds 3 kts (1.5 m/s, 3.5 mph) North (360°)
Visibility9 mi. (14.5 km)
Clouds Few clouds 25,000 ft. (7,620 m)
Altimeter30.08 in.Hg (1019 mB)
Relative humidity90 %
Density altitude262 ft. (80 m)
Sea-level pressure101.8 kPa (1018 mB, 30.07 in.Hg)
Remarks Automated weather observing station with precipitation discriminator
Flight conditions Visual Meteorological Conditions
Raw dataKORD 161051Z 36003KT 9SM FEW250 17/15 A3008 RMK AO2 SLP184 T01670150
An error has occurred. This application may no longer respond until reloaded. Reload 🗙